Time;durP1;ratioP1;P1;durP2;ratioP2;P2;SDS_P1;SDS_P2;PMS_P1;PMS_P2;Temp;Humidity;BMP_temperature;BMP_pressure;BME280_temperature;BME280_humidity;BME280_pressure;Samples;Min_cycle;Max_cycle;Signal;HPM_P1;HPM_P2
2024/04/09 00:02:24;;;;;;;14.55;4.55;;;21.10;31.80;;;22.89;27.23;96536.94;5380551;26;20032;-39
2024/04/09 00:04:52;;;;;;;11.68;4.18;;;21.10;30.90;;;22.89;26.95;96553.19;5380273;26;20480;-39
2024/04/09 00:07:21;;;;;;;12.80;4.30;;;21.20;30.90;;;22.92;26.61;96541.84;5380101;26;20028;-39
2024/04/09 00:09:51;;;;;;;12.10;4.88;;;21.20;30.00;;;22.94;26.30;96542.38;5380260;26;20036;-39
2024/04/09 00:12:21;;;;;;;12.82;5.07;;;21.30;29.60;;;22.97;26.39;96527.44;5379788;26;20483;-40
2024/04/09 00:14:49;;;;;;;10.30;3.47;;;21.40;29.40;;;22.99;26.13;96522.56;5377579;26;20022;-40
2024/04/09 00:17:19;;;;;;;18.73;6.97;;;21.40;29.40;;;22.98;26.23;96524.47;5379654;26;20068;-39
2024/04/09 00:19:47;;;;;;;15.77;4.07;;;21.40;29.60;;;23.01;26.02;96523.13;5379931;26;20044;-39
2024/04/09 00:22:15;;;;;;;12.35;4.13;;;21.50;29.20;;;23.04;25.67;96519.91;5377933;26;20036;-39
2024/04/09 00:24:43;;;;;;;11.52;4.35;;;21.50;29.00;;;23.02;25.77;96527.47;5379303;26;20053;-39
2024/04/09 00:27:11;;;;;;;11.57;3.53;;;21.50;28.90;;;23.04;25.60;96524.53;5379427;26;20044;-39
2024/04/09 00:29:40;;;;;;;15.00;4.10;;;21.50;28.90;;;23.05;25.91;96528.84;5379883;26;20040;-39
2024/04/09 00:32:08;;;;;;;12.55;4.28;;;21.50;28.80;;;23.06;25.70;96527.78;5377385;26;20522;-39
2024/04/09 00:34:36;;;;;;;13.20;4.22;;;21.50;28.70;;;23.05;25.53;96523.44;5375798;26;20035;-39
2024/04/09 00:37:04;;;;;;;15.43;3.97;;;21.50;28.70;;;23.04;25.59;96525.34;5379555;26;20040;-39
2024/04/09 00:39:34;;;;;;;18.13;3.65;;;21.50;28.60;;;23.03;25.45;96522.88;5378476;26;20492;-39
2024/04/09 00:42:03;;;;;;;9.57;3.58;;;21.50;28.80;;;23.02;25.56;96518.53;5379868;26;20033;-39
2024/04/09 00:44:31;;;;;;;13.45;4.15;;;21.40;28.70;;;22.97;25.80;96516.59;5379775;26;20040;-39
2024/04/09 00:46:59;;;;;;;16.10;5.05;;;21.40;28.90;;;22.94;25.72;96520.66;5379719;26;20357;-39
2024/04/09 00:49:27;;;;;;;15.20;5.47;;;21.30;28.90;;;22.88;25.36;96519.03;5377076;26;20028;-39
2024/04/09 00:51:56;;;;;;;9.60;3.38;;;21.40;28.20;;;22.87;25.13;96520.09;5379359;26;20479;-39
2024/04/09 00:54:24;;;;;;;13.02;4.68;;;21.40;27.90;;;22.88;25.42;96510.09;5379103;26;20111;-39
2024/04/09 00:56:53;;;;;;;15.95;3.88;;;21.40;28.40;;;22.89;25.39;96526.06;5379010;26;20041;-39
2024/04/09 00:59:22;;;;;;;15.65;4.03;;;21.40;28.50;;;22.86;25.55;96526.63;5379169;26;20039;-40
2024/04/09 01:01:51;;;;;;;9.45;4.40;;;21.40;28.80;;;22.84;26.30;96526.06;5379465;26;20028;-39
2024/04/09 01:04:20;;;;;;;8.73;3.95;;;21.30;29.20;;;22.81;26.31;96516.56;5376804;26;20439;-39
2024/04/09 01:06:47;;;;;;;10.23;4.90;;;21.20;29.70;;;22.75;26.48;96505.97;5379146;26;20044;-39
2024/04/09 01:09:16;;;;;;;10.07;3.58;;;21.00;29.50;;;22.67;26.54;96506.50;5379864;26;20454;-39
2024/04/09 01:11:44;;;;;;;9.68;3.35;;;20.90;29.60;;;22.61;27.10;96509.19;5379093;26;20032;-39
2024/04/09 01:14:12;;;;;;;15.32;5.18;;;20.90;30.60;;;22.57;26.95;96515.41;5378584;26;20363;-39
2024/04/09 01:16:39;;;;;;;18.38;4.75;;;20.80;30.00;;;22.54;27.05;96516.72;5379303;26;20036;-39
2024/04/09 01:19:08;;;;;;;13.52;5.00;;;20.80;31.00;;;22.52;27.83;96509.94;5392179;26;20036;-39
2024/04/09 01:21:36;;;;;;;12.70;4.30;;;20.80;31.50;;;22.49;28.11;96510.47;5379258;26;20048;-39
2024/04/09 01:24:05;;;;;;;9.63;3.78;;;20.80;32.30;;;22.46;28.07;96508.31;5378712;26;20448;-39
2024/04/09 01:26:34;;;;;;;13.93;5.07;;;20.70;32.50;;;22.44;28.48;96510.47;5376316;26;20040;-39
2024/04/09 01:29:02;;;;;;;10.65;4.38;;;20.70;32.80;;;22.37;28.95;96505.28;5379100;26;20032;-39
2024/04/09 01:31:30;;;;;;;17.67;5.07;;;20.50;33.40;;;22.33;28.70;96507.72;5391758;26;20368;-40
2024/04/09 01:33:58;;;;;;;12.52;3.45;;;20.60;33.60;;;22.30;29.09;96507.44;5378420;26;20044;-39
2024/04/09 01:36:28;;;;;;;15.00;4.50;;;20.50;33.90;;;22.26;29.14;96509.84;5378339;26;20032;-39
2024/04/09 01:38:56;;;;;;;9.27;3.55;;;20.40;33.90;;;22.18;29.43;96508.41;5379465;26;20353;-39
2024/04/09 01:41:24;;;;;;;15.43;4.85;;;20.30;34.80;;;22.12;29.59;96508.63;5378523;26;20032;-39
2024/04/09 01:43:52;;;;;;;10.75;4.57;;;20.30;34.60;;;22.08;29.48;96500.25;5378074;26;20028;-39
2024/04/09 01:46:20;;;;;;;16.80;4.10;;;20.20;34.30;;;22.04;29.86;96507.25;5378409;26;20052;-40
2024/04/09 01:48:48;;;;;;;9.02;3.45;;;20.20;35.50;;;22.00;30.28;96504.25;5379117;26;20483;-39
2024/04/09 01:51:17;;;;;;;12.73;3.53;;;20.20;35.80;;;21.98;30.16;96511.84;5377520;26;20056;-39
2024/04/09 01:53:49;;;;;;;14.25;4.05;;;20.10;35.90;;;21.99;30.08;96512.66;5377958;26;20356;-39
2024/04/09 01:56:17;;;;;;;13.70;4.68;;;20.20;35.20;;;22.01;30.18;96514.00;5378544;26;20040;-40
2024/04/09 01:58:48;;;;;;;14.15;4.32;;;20.20;35.30;;;22.00;30.25;96520.53;5378867;26;20476;-39
2024/04/09 02:01:16;;;;;;;14.65;6.00;;;20.20;35.40;;;22.04;29.26;96515.38;5376476;26;20368;-39
2024/04/09 02:03:49;;;;;;;10.65;3.88;;;20.30;33.70;;;22.09;29.10;96518.13;5377736;26;20132;-40
2024/04/09 02:06:17;;;;;;;14.45;4.43;;;20.40;33.00;;;22.16;28.72;96523.31;5378030;26;20037;-39
2024/04/09 02:08:46;;;;;;;11.70;4.10;;;20.50;32.40;;;22.19;28.70;96526.28;5378700;26;20364;-39
2024/04/09 02:11:13;;;;;;;12.45;3.88;;;20.70;32.50;;;22.22;28.33;96520.38;5378085;26;20036;-39
2024/04/09 02:13:41;;;;;;;14.07;4.18;;;20.70;32.00;;;22.22;28.80;96519.56;5377404;26;20036;-39
2024/04/09 02:16:09;;;;;;;12.75;3.90;;;20.70;32.20;;;22.21;28.60;96531.47;5378286;26;20189;-39
2024/04/09 02:18:38;;;;;;;14.52;4.68;;;20.60;32.10;;;22.12;28.56;96533.88;5378389;26;20136;-39
2024/04/09 02:21:09;;;;;;;22.55;5.55;;;20.60;32.00;;;22.09;28.86;96534.38;5378299;26;20032;-39
2024/04/09 02:23:40;;;;;;;15.68;4.82;;;20.50;32.20;;;22.12;28.25;96530.31;5377779;26;20460;-39
2024/04/09 02:26:09;;;;;;;14.95;4.65;;;20.60;31.90;;;22.17;28.43;96520.31;5376302;26;20032;-39
2024/04/09 02:28:36;;;;;;;18.75;5.65;;;20.70;31.80;;;22.23;28.32;96521.16;5378100;26;20032;-39
2024/04/09 02:31:04;;;;;;;14.70;4.70;;;20.80;31.50;;;22.26;28.04;96526.13;5376237;26;20032;-39
2024/04/09 02:33:33;;;;;;;16.10;4.90;;;20.80;31.40;;;22.32;28.13;96532.38;5377507;26;20036;-39
2024/04/09 02:36:11;;;;;;;17.10;4.97;;;20.80;31.40;;;22.34;28.00;96524.78;5347219;26;20039;-39
2024/04/09 02:38:39;;;;;;;13.25;4.60;;;20.90;31.60;;;22.34;27.88;96514.75;5376733;26;20360;-39
2024/04/09 02:41:08;;;;;;;16.48;5.32;;;20.90;30.90;;;22.35;27.95;96521.00;5378070;26;20032;-39
2024/04/09 02:43:36;;;;;;;15.73;5.10;;;20.90;30.90;;;22.33;27.97;96524.00;5404723;26;20044;-39
2024/04/09 02:46:04;;;;;;;16.95;5.43;;;20.90;30.70;;;22.30;27.90;96526.41;5378064;26;20040;-39
2024/04/09 02:48:32;;;;;;;17.02;5.75;;;20.90;30.90;;;22.28;28.03;96542.94;5378208;26;20055;-39
2024/04/09 02:51:05;;;;;;;15.20;5.68;;;20.90;31.10;;;22.23;28.25;96554.50;5377540;26;20329;-39
2024/04/09 02:53:33;;;;;;;19.38;6.38;;;20.80;31.40;;;22.16;27.96;96562.06;5377400;26;20425;-39
2024/04/09 02:56:08;;;;;;;14.77;5.13;;;20.80;31.50;;;22.11;28.45;96561.22;5377563;26;20036;-39
2024/04/09 02:58:36;;;;;;;17.52;5.38;;;20.70;31.80;;;22.11;28.47;96559.31;5378366;26;20040;-39
2024/04/09 03:01:10;;;;;;;11.98;4.55;;;20.60;32.10;;;22.07;28.86;96563.63;5390388;26;20040;-39
2024/04/09 03:03:38;;;;;;;21.55;6.20;;;20.50;32.60;;;22.03;29.05;96560.63;5379652;26;20364;-39
2024/04/09 03:06:11;;;;;;;17.05;4.75;;;20.40;33.00;;;22.01;29.54;96564.69;5380855;26;20083;-40
2024/04/09 03:08:41;;;;;;;23.58;5.53;;;20.40;33.90;;;21.98;29.30;96567.91;5407536;26;20035;-39
2024/04/09 03:11:19;;;;;;;26.50;5.53;;;20.30;33.60;;;21.95;29.12;96560.31;5380717;26;20039;-39
2024/04/09 03:13:49;;;;;;;19.95;5.22;;;20.20;33.60;;;21.92;29.24;96567.06;5380244;26;20049;-40
2024/04/09 03:16:20;;;;;;;13.43;4.50;;;20.20;33.50;;;21.86;29.41;96568.09;5378445;26;20034;-39
2024/04/09 03:18:53;;;;;;;21.00;5.82;;;20.20;33.80;;;21.79;30.14;96578.31;5379672;26;20040;-39
2024/04/09 03:21:21;;;;;;;21.70;6.20;;;20.20;34.50;;;21.80;29.98;96577.25;5372265;26;20043;-39
2024/04/09 03:23:49;;;;;;;17.60;5.30;;;20.20;34.40;;;21.76;30.09;96576.97;5365808;26;20368;-39
2024/04/09 03:26:17;;;;;;;18.67;6.65;;;20.20;35.00;;;21.67;30.73;96573.09;5378191;26;20028;-39
2024/04/09 03:28:45;;;;;;;17.83;5.18;;;20.10;35.30;;;21.58;30.91;96575.47;5380918;26;20056;-39
2024/04/09 03:31:13;;;;;;;20.45;6.68;;;20.10;36.00;;;21.62;31.05;96576.56;5380359;26;20048;-39
2024/04/09 03:33:40;;;;;;;19.13;6.75;;;20.00;35.70;;;21.60;31.05;96586.03;5380089;26;20368;-39
2024/04/09 03:36:09;;;;;;;18.30;7.40;;;20.00;36.00;;;21.59;31.37;96596.03;5377166;26;20371;-39
2024/04/09 03:38:37;;;;;;;18.52;6.15;;;20.00;36.00;;;21.62;30.95;96597.44;5380568;26;20032;-39
2024/04/09 03:41:06;;;;;;;18.40;6.45;;;20.10;36.00;;;21.64;31.33;96598.00;5380236;26;20035;-39
2024/04/09 03:43:34;;;;;;;20.23;5.70;;;20.10;36.10;;;21.69;31.13;96602.63;5379972;26;20044;-39
2024/04/09 03:46:09;;;;;;;25.15;6.55;;;20.10;36.00;;;21.68;31.79;96606.41;5380290;26;20032;-39
2024/04/09 03:48:41;;;;;;;14.98;5.72;;;20.10;36.70;;;21.56;32.03;96604.69;5380581;26;20040;-39
2024/04/09 03:51:11;;;;;;;22.75;5.70;;;20.00;37.60;;;21.40;32.33;96610.97;5380528;26;20367;-39
2024/04/09 03:53:39;;;;;;;14.63;6.05;;;19.80;37.80;;;21.34;32.40;96617.44;5379711;26;20614;-40
2024/04/09 03:56:07;;;;;;;25.38;6.22;;;19.80;37.50;;;21.17;32.48;96618.34;5407775;26;20475;-39
2024/04/09 03:58:39;;;;;;;20.20;5.75;;;19.70;37.60;;;20.90;32.92;96614.75;5378244;26;20032;-39
2024/04/09 04:01:08;;;;;;;25.70;5.68;;;19.60;37.60;;;20.90;33.21;96629.13;5380362;26;20032;-39
2024/04/09 04:03:40;;;;;;;16.35;5.50;;;19.60;38.00;;;20.82;33.16;96632.25;5379746;26;20040;-39
2024/04/09 04:06:09;;;;;;;14.52;4.55;;;19.60;37.70;;;20.74;33.36;96640.81;5379575;26;20587;-39
2024/04/09 04:08:39;;;;;;;16.45;5.25;;;19.60;37.90;;;20.71;33.42;96646.72;5378296;26;20116;-39
2024/04/09 04:11:12;;;;;;;14.05;4.45;;;19.60;38.00;;;20.71;33.57;96644.03;5380005;26;20508;-39
2024/04/09 04:13:41;;;;;;;;;;;19.60;38.20;;;20.56;34.05;96653.53;5379669;26;20051;-39
2024/04/09 04:16:16;;;;;;;17.23;5.07;;;19.50;38.70;;;20.62;34.01;96657.97;5380135;26;19969;-39
2024/04/09 04:18:46;;;;;;;16.52;4.90;;;19.50;38.80;;;20.64;33.91;96639.59;5380002;26;20463;-39
2024/04/09 04:21:17;;;;;;;14.05;4.18;;;19.50;38.70;;;20.69;34.04;96662.41;5379791;26;20020;-39
2024/04/09 04:23:51;;;;;;;9.35;3.83;;;19.50;38.90;;;20.53;34.74;96672.13;5379220;26;20479;-39
2024/04/09 04:26:21;;;;;;;18.83;3.85;;;19.40;39.60;;;20.59;34.52;96677.41;5379672;26;20476;-39
2024/04/09 04:28:50;;;;;;;12.80;4.35;;;19.40;40.00;;;20.57;34.85;96690.31;5377743;26;20113;-39
2024/04/09 04:31:20;;;;;;;12.27;3.60;;;19.30;40.30;;;20.51;35.00;96704.84;5379664;26;20048;-39
2024/04/09 04:33:49;;;;;;;13.15;3.55;;;19.20;40.60;;;20.53;34.99;96705.41;5379514;26;20039;-39
2024/04/09 04:36:20;;;;;;;15.90;4.85;;;19.20;40.80;;;20.48;35.35;96716.13;5379413;26;20028;-38
2024/04/09 04:38:49;;;;;;;9.65;3.35;;;19.10;41.60;;;20.26;35.97;96714.19;5378606;26;20056;-38
2024/04/09 04:41:17;;;;;;;9.32;4.35;;;19.00;42.10;;;20.21;35.95;96727.59;5391921;26;20491;-39
2024/04/09 04:43:45;;;;;;;7.68;4.43;;;18.90;42.50;;;20.14;36.53;96736.91;5379171;26;20048;-39
2024/04/09 04:46:12;;;;;;;12.65;3.33;;;18.80;42.40;;;20.09;36.68;96747.66;5379648;26;20032;-39
2024/04/09 04:48:40;;;;;;;7.72;4.20;;;18.80;42.80;;;20.17;36.60;96756.16;5379744;26;20043;-40
2024/04/09 04:51:09;;;;;;;14.25;3.60;;;18.80;43.50;;;20.02;37.09;96753.19;5380384;26;20032;-40
2024/04/09 04:53:37;;;;;;;10.43;2.67;;;18.70;44.80;;;20.01;37.19;96756.97;5379446;26;20040;-40
2024/04/09 04:56:05;;;;;;;11.00;3.38;;;18.80;44.00;;;19.82;38.23;96751.78;5379563;26;20036;-40
2024/04/09 04:58:33;;;;;;;10.02;2.90;;;18.60;45.00;;;19.71;38.59;96751.78;5380144;26;20014;-40
2024/04/09 05:01:00;;;;;;;7.18;2.47;;;18.50;45.90;;;19.81;38.40;96765.50;5379477;26;20034;-40
2024/04/09 05:03:28;;;;;;;10.02;2.70;;;18.40;46.10;;;19.85;38.22;96769.38;5378730;26;20032;-40
2024/04/09 05:06:05;;;;;;;8.05;2.80;;;18.50;46.10;;;19.63;39.33;96791.59;5379989;26;20034;-40
2024/04/09 05:08:33;;;;;;;5.70;2.20;;;18.40;46.70;;;19.73;38.54;96792.91;5379305;26;20155;-40
2024/04/09 05:11:10;;;;;;;4.45;3.28;;;18.40;46.40;;;19.64;39.33;96792.44;5363432;26;20559;-40
2024/04/09 05:13:39;;;;;;;3.85;1.80;;;18.30;46.90;;;19.51;39.45;96785.44;5378347;26;20371;-40
2024/04/09 05:16:07;;;;;;;6.43;2.00;;;18.20;46.80;;;19.42;39.85;96790.38;5379519;26;20040;-40
2024/04/09 05:18:34;;;;;;;6.13;2.40;;;18.10;47.50;;;19.40;39.73;96792.50;5379106;26;20044;-40
2024/04/09 05:21:04;;;;;;;7.28;2.20;;;18.00;47.90;;;19.44;39.99;96804.47;5377624;26;20396;-40
2024/04/09 05:23:32;;;;;;;4.38;2.13;;;18.10;47.80;;;19.34;40.69;96820.44;5378707;26;20028;-40
2024/04/09 05:25:59;;;;;;;8.50;2.28;;;18.00;49.10;;;19.30;40.69;96821.16;5379109;26;20048;-40
2024/04/09 05:28:27;;;;;;;4.53;1.88;;;17.90;48.80;;;19.25;41.00;96829.94;5379092;26;20036;-39
2024/04/09 05:30:55;;;;;;;3.33;1.73;;;17.90;49.70;;;19.04;41.86;96839.47;5378906;26;20032;-40
2024/04/09 05:33:23;;;;;;;4.53;2.40;;;17.80;50.80;;;18.90;42.35;96844.25;5378688;26;20024;-39
2024/04/09 05:35:51;;;;;;;6.63;1.42;;;17.70;51.80;;;18.74;42.74;96843.03;5379272;26;20036;-40
2024/04/09 05:38:19;;;;;;;5.22;1.73;;;17.50;52.10;;;18.72;43.28;96850.53;5378194;26;20032;-40
2024/04/09 05:40:56;;;;;;;2.47;1.63;;;17.50;52.50;;;18.65;43.79;96857.91;5378860;26;20392;-40
2024/04/09 05:43:24;;;;;;;5.60;1.92;;;17.40;53.70;;;18.65;44.22;96868.69;5378350;26;20456;-40
2024/04/09 05:45:52;;;;;;;5.38;2.25;;;17.40;53.80;;;18.73;43.83;96881.00;5378498;26;20045;-40
2024/04/09 05:48:19;;;;;;;5.60;1.95;;;17.40;53.10;;;18.73;43.82;96879.16;5378866;26;20024;-40
2024/04/09 05:50:48;;;;;;;5.45;2.72;;;17.40;54.50;;;18.65;44.55;96877.63;5377059;26;20024;-40
2024/04/09 05:53:16;;;;;;;7.05;1.90;;;17.30;54.80;;;18.59;44.55;96881.25;5378083;26;20028;-40
2024/04/09 05:55:56;;;;;;;3.55;1.50;;;17.30;54.60;;;18.69;44.53;96884.19;5376486;26;20036;-40
2024/04/09 05:58:24;;;;;;;8.52;1.77;;;17.30;55.30;;;18.79;43.83;96885.50;5378857;26;20032;-40
2024/04/09 06:00:53;;;;;;;3.58;1.80;;;17.40;54.60;;;18.76;44.14;96889.47;5406208;26;20443;-40
2024/04/09 06:03:22;;;;;;;5.50;1.83;;;17.40;54.40;;;18.67;44.44;96890.88;5377715;26;20503;-40
2024/04/09 06:05:55;;;;;;;3.53;2.03;;;17.30;55.60;;;18.70;44.58;96895.78;5378520;26;20054;-40
2024/04/09 06:08:23;;;;;;;7.25;2.28;;;17.30;54.70;;;18.81;44.60;96899.59;5379431;26;20512;-40
2024/04/09 06:10:51;;;;;;;6.20;1.85;;;17.30;55.50;;;18.72;44.99;96920.63;5378427;26;20048;-41
2024/04/09 06:13:19;;;;;;;4.40;1.48;;;17.30;56.20;;;18.68;44.92;96917.59;5377965;26;20028;-41
2024/04/09 06:15:47;;;;;;;6.10;2.35;;;17.30;56.00;;;18.65;45.71;96928.84;5377770;26;20031;-40
2024/04/09 06:18:14;;;;;;;3.53;1.80;;;17.20;56.90;;;18.55;45.76;96930.44;5378334;26;20032;-41
2024/04/09 06:20:45;;;;;;;5.57;1.73;;;17.20;57.00;;;18.66;45.81;96927.78;5378347;26;20043;-40
2024/04/09 06:23:12;;;;;;;4.70;2.28;;;17.20;57.40;;;18.64;45.45;96929.06;5377576;26;20040;-40
2024/04/09 06:25:40;;;;;;;4.97;1.60;;;17.20;57.20;;;18.84;45.55;96934.19;5379345;26;20032;-40
2024/04/09 06:28:08;;;;;;;7.43;2.30;;;17.30;57.50;;;18.92;45.20;96939.25;5378129;26;20032;-40
2024/04/09 06:30:36;;;;;;;5.90;1.70;;;17.40;57.60;;;19.00;45.25;96938.06;5377291;26;20059;-41
2024/04/09 06:33:04;;;;;;;3.60;2.17;;;17.50;56.70;;;18.98;45.86;96950.97;5377302;26;20048;-40
2024/04/09 06:35:33;;;;;;;3.20;1.85;;;17.50;57.80;;;18.87;46.38;96961.50;5378085;26;20050;-40
2024/04/09 06:38:01;;;;;;;6.43;2.47;;;17.40;58.10;;;18.86;46.22;96978.75;5369015;26;20493;-40
2024/04/09 06:40:30;;;;;;;4.32;2.95;;;17.40;58.40;;;18.89;46.40;96962.09;5377642;26;20044;-40
2024/04/09 06:42:59;;;;;;;7.47;2.17;;;17.40;58.50;;;18.65;47.78;96985.44;5377274;26;20020;-40
2024/04/09 06:45:27;;;;;;;4.30;1.83;;;17.30;60.00;;;18.54;48.31;96977.31;5371234;26;20053;-40
2024/04/09 06:47:55;;;;;;;4.80;1.98;;;17.20;60.90;;;18.51;48.20;96967.81;5377383;26;20004;-40
2024/04/09 06:50:23;;;;;;;6.78;2.20;;;17.10;61.70;;;18.42;48.83;96979.97;5377550;26;20032;-40
2024/04/09 06:52:51;;;;;;;4.07;2.00;;;17.00;62.30;;;18.37;48.69;96985.22;5374702;26;20039;-40
2024/04/09 06:55:19;;;;;;;3.92;1.70;;;17.00;62.00;;;18.39;48.58;96983.91;5375440;26;20029;-40
2024/04/09 06:57:47;;;;;;;3.88;1.95;;;17.00;62.10;;;18.18;50.07;96989.78;5377775;26;20036;-40
2024/04/09 07:00:15;;;;;;;6.05;1.60;;;16.90;63.90;;;18.09;50.10;96989.28;5377276;26;20044;-40
2024/04/09 07:02:44;;;;;;;6.30;2.60;;;16.70;63.80;;;18.09;50.28;97024.31;5378671;26;20032;-40
2024/04/09 07:05:12;;;;;;;5.25;1.90;;;16.80;64.30;;;17.87;50.98;97011.28;5363755;26;20055;-40
2024/04/09 07:07:39;;;;;;;5.53;2.03;;;16.60;65.60;;;17.93;50.32;97006.03;5377240;26;20047;-40
2024/04/09 07:10:08;;;;;;;9.43;2.50;;;16.50;65.40;;;17.95;50.96;97020.09;5377731;26;20044;-40
2024/04/09 07:12:36;;;;;;;5.65;2.35;;;16.50;65.70;;;17.87;50.91;97029.28;5376649;26;20040;-40
2024/04/09 07:15:04;;;;;;;3.83;1.92;;;16.50;66.10;;;17.68;51.86;97053.47;5377642;26;20040;-40
2024/04/09 07:17:32;;;;;;;3.00;1.67;;;16.30;66.30;;;17.52;51.83;97054.84;5377409;26;20365;-40
2024/04/09 07:20:03;;;;;;;6.13;2.08;;;16.30;67.30;;;17.54;51.69;97046.53;5376936;26;20112;-40
2024/04/09 07:22:31;;;;;;;6.03;2.33;;;16.30;67.60;;;17.41;52.68;97060.09;5377450;26;20053;-38
2024/04/09 07:24:59;;;;;;;5.40;1.60;;;16.20;67.60;;;17.41;52.25;97060.09;5377124;26;20464;-39
2024/04/09 07:27:26;;;;;;;10.93;1.90;;;16.10;68.30;;;17.24;52.83;97075.97;5377153;26;20471;-39
2024/04/09 07:29:54;;;;;;;7.13;3.17;;;16.00;69.30;;;17.10;54.32;97094.03;5376742;26;20500;-39
2024/04/09 07:32:22;;;;;;;4.45;1.70;;;15.90;71.10;;;17.05;52.14;97083.91;5377288;26;20032;-39
2024/04/09 07:34:51;;;;;;;1.65;0.80;;;15.70;67.80;;;16.59;52.20;97094.88;5376958;26;20051;-39
2024/04/09 07:37:19;;;;;;;1.17;1.00;;;15.20;66.80;;;16.31;51.85;97087.94;5377548;26;20123;-39
2024/04/09 07:39:46;;;;;;;2.13;0.93;;;14.90;66.40;;;16.04;51.60;97101.44;5376673;26;20045;-39
2024/04/09 07:42:14;;;;;;;1.75;0.82;;;14.70;66.40;;;15.88;51.83;97129.53;5402755;26;20032;-39
2024/04/09 07:44:42;;;;;;;2.70;0.60;;;14.50;66.20;;;15.70;51.28;97129.28;5375741;26;20040;-37
2024/04/09 07:47:10;;;;;;;1.70;0.70;;;14.40;65.50;;;15.59;51.30;97146.84;5376857;26;20232;-39
2024/04/09 07:49:38;;;;;;;2.72;0.88;;;14.30;66.10;;;15.64;52.02;97144.34;5376272;26;20066;-39
2024/04/09 07:52:06;;;;;;;1.25;0.80;;;14.40;66.60;;;15.70;51.68;97154.28;5379008;26;20067;-39
2024/04/09 07:54:34;;;;;;;1.17;0.80;;;14.40;65.90;;;15.61;50.85;97160.06;5379155;26;20057;-39
2024/04/09 07:57:03;;;;;;;1.17;0.77;;;14.40;64.00;;;15.79;50.51;97179.09;5380438;26;20039;-39
2024/04/09 07:59:31;;;;;;;1.90;0.98;;;14.50;64.70;;;15.89;50.69;97176.81;5380333;26;20060;-39
2024/04/09 08:01:59;;;;;;;1.65;0.60;;;14.40;64.60;;;15.72;50.28;97191.63;5379786;26;20035;-39
2024/04/09 08:04:27;;;;;;;2.15;0.63;;;14.30;64.70;;;15.60;50.18;97196.78;5379785;26;20036;-38
2024/04/09 08:06:55;;;;;;;1.80;0.70;;;14.20;64.00;;;15.47;49.55;97202.97;5379953;26;20044;-38
2024/04/09 08:09:23;;;;;;;1.77;0.80;;;14.10;62.50;;;15.34;48.91;97202.91;5380152;26;20121;-39
2024/04/09 08:11:53;;;;;;;1.88;0.90;;;14.00;61.50;;;15.06;48.74;97254.81;5379955;26;20044;-38
2024/04/09 08:14:22;;;;;;;2.58;0.93;;;13.60;61.00;;;14.69;48.93;97199.75;5379545;26;20031;-38
2024/04/09 08:16:51;;;;;;;2.22;0.93;;;13.40;60.70;;;14.63;48.97;97224.66;5379373;26;20032;-39
2024/04/09 08:19:19;;;;;;;2.55;0.70;;;13.30;62.00;;;14.51;49.20;97235.91;5407122;26;20036;-38
2024/04/09 08:21:47;;;;;;;0.75;0.60;;;13.30;61.80;;;14.62;48.46;97239.06;5379934;26;20032;-38
2024/04/09 08:24:15;;;;;;;1.02;0.60;;;13.40;59.60;;;14.43;48.17;97259.34;5379580;26;20028;-38
2024/04/09 08:26:43;;;;;;;1.67;0.90;;;13.20;59.00;;;14.33;48.60;97262.34;5379610;26;20029;-39
2024/04/09 08:29:15;;;;;;;1.33;0.52;;;13.20;59.50;;;14.18;48.39;97289.22;5378813;26;20044;-39
2024/04/09 08:31:44;;;;;;;2.72;0.60;;;13.00;59.00;;;14.32;47.81;97290.97;5378010;26;20036;-39
2024/04/09 08:34:12;;;;;;;1.20;0.60;;;13.10;59.10;;;14.30;48.02;97284.97;5379462;26;20075;-38
2024/04/09 08:36:44;;;;;;;0.82;0.75;;;13.10;59.60;;;14.18;49.27;97305.28;5379361;26;20496;-40
2024/04/09 08:39:12;;;;;;;0.77;0.68;;;13.00;60.60;;;14.21;49.37;97347.72;5379190;26;20488;-41
2024/04/09 08:41:41;;;;;;;0.70;0.70;;;13.00;61.50;;;14.22;49.67;97327.13;5379374;26;20032;-40
2024/04/09 08:44:10;;;;;;;1.67;0.80;;;13.00;62.00;;;14.18;49.71;97351.59;5378223;26;20071;-40
2024/04/09 08:46:38;;;;;;;0.70;0.60;;;12.90;62.40;;;14.12;49.79;97357.72;5363172;26;20040;-38
2024/04/09 08:49:08;;;;;;;1.60;0.70;;;12.80;62.00;;;14.16;49.26;97352.81;5377623;26;20032;-38
2024/04/09 08:51:38;;;;;;;1.13;1.13;;;12.80;61.90;;;14.22;49.31;97380.69;5379603;26;20495;-38
2024/04/09 08:54:06;;;;;;;3.83;0.55;;;12.90;61.50;;;14.04;48.87;97389.97;5378814;26;20047;-40
2024/04/09 08:56:34;;;;;;;0.55;0.55;;;12.70;61.10;;;13.98;48.91;97383.53;5379694;26;20055;-38
2024/04/09 08:59:04;;;;;;;1.42;0.70;;;12.60;61.40;;;13.85;48.65;97388.72;5379502;26;20040;-39
2024/04/09 09:01:32;;;;;;;0.98;0.82;;;12.40;61.60;;;13.79;48.24;97389.47;5378714;26;20458;-39
2024/04/09 09:04:00;;;;;;;3.80;0.70;;;12.30;60.60;;;13.67;48.63;97402.50;5406637;26;20032;-39
2024/04/09 09:06:30;;;;;;;3.90;1.27;;;12.20;61.10;;;13.46;48.88;97389.91;5378843;26;20040;-39
2024/04/09 09:08:58;;;;;;;1.35;0.80;;;12.10;62.10;;;13.45;49.16;97368.69;5379054;26;20040;-38
2024/04/09 09:11:26;;;;;;;1.08;0.60;;;12.10;62.80;;;13.54;49.42;97408.50;5380121;26;20519;-38
2024/04/09 09:14:04;;;;;;;1.65;1.00;;;12.10;62.60;;;13.43;49.33;97406.28;5378294;26;20028;-39
2024/04/09 09:16:33;;;;;;;0.60;0.60;;;12.00;63.30;;;13.51;49.50;97408.91;5377292;26;20383;-38
2024/04/09 09:19:06;;;;;;;3.05;0.90;;;12.00;63.20;;;13.34;50.08;97426.97;5377302;26;20349;-39
2024/04/09 09:21:34;;;;;;;3.17;1.80;;;11.90;64.10;;;12.99;49.90;97421.28;5378307;26;20044;-38
2024/04/09 09:24:02;;;;;;;1.48;1.20;;;11.60;63.70;;;12.99;49.90;97412.44;5378385;26;20048;-38
2024/04/09 09:26:30;;;;;;;3.50;1.05;;;11.60;62.90;;;12.97;49.52;97409.94;5377555;26;20056;-38
2024/04/09 09:29:05;;;;;;;0.90;0.90;;;11.60;62.40;;;12.86;49.17;97414.91;5347962;26;20123;-39
2024/04/09 09:31:39;;;;;;;6.05;2.90;;;11.40;61.90;;;12.60;49.73;97424.09;5366006;26;20028;-38
2024/04/09 09:34:10;;;;;;;3.45;1.50;;;11.30;61.80;;;12.31;49.96;97432.84;5347975;26;20036;-39
2024/04/09 09:36:39;;;;;;;2.47;0.90;;;11.20;62.20;;;12.51;49.90;97438.56;5376060;26;20040;-39
2024/04/09 09:39:09;;;;;;;0.88;0.88;;;11.20;62.00;;;12.29;50.30;97418.84;5375323;26;20031;-39
2024/04/09 09:41:37;;;;;;;4.25;0.95;;;11.10;62.90;;;12.30;50.05;97440.03;5362765;26;20377;-39
2024/04/09 09:44:08;;;;;;;1.47;1.00;;;11.10;62.00;;;12.36;50.30;97433.16;5378876;26;20135;-39
2024/04/09 09:46:36;;;;;;;1.73;1.48;;;11.20;62.80;;;12.55;50.19;97458.56;5376986;26;20483;-39
2024/04/09 09:49:06;;;;;;;1.50;0.90;;;11.30;62.50;;;12.46;50.55;97452.41;5379249;26;20044;-39
2024/04/09 09:51:34;;;;;;;3.05;0.90;;;11.20;63.20;;;12.23;50.96;97463.09;5377455;26;20363;-39
2024/04/09 09:54:02;;;;;;;1.63;0.80;;;11.00;63.10;;;12.21;50.51;97457.09;5376659;26;20032;-39
2024/04/09 09:56:32;;;;;;;2.00;1.00;;;10.90;63.80;;;12.24;50.66;97472.75;5364915;26;20036;-39
2024/04/09 09:59:01;;;;;;;1.05;0.95;;;11.00;63.50;;;12.41;50.26;97486.84;5377219;26;20036;-39
2024/04/09 10:01:32;;;;;;;1.95;0.98;;;11.10;63.60;;;12.39;50.12;97487.03;5377346;26;20044;-38
2024/04/09 10:04:02;;;;;;;1.17;1.08;;;11.10;63.50;;;12.48;50.08;97500.31;5375993;26;20029;-39
2024/04/09 10:06:31;;;;;;;1.00;0.90;;;11.20;63.90;;;12.53;50.18;97503.28;5376731;26;20455;-39
2024/04/09 10:09:05;;;;;;;0.70;0.65;;;11.10;63.80;;;12.22;51.12;97520.16;5378259;26;20040;-39
2024/04/09 10:11:43;;;;;;;1.10;0.80;;;11.00;64.50;;;12.16;51.39;97535.03;5363825;26;20039;-39
2024/04/09 10:14:21;;;;;;;1.00;0.90;;;10.90;65.00;;;11.89;52.46;97535.44;5377750;26;20492;-39
2024/04/09 10:16:49;;;;;;;3.17;1.10;;;10.80;65.30;;;11.93;52.30;97520.78;5376190;26;20028;-39
2024/04/09 10:19:17;;;;;;;0.90;0.90;;;10.80;66.30;;;12.12;52.02;97539.03;5378712;26;20044;-39
2024/04/09 10:21:47;;;;;;;0.95;0.73;;;10.80;66.70;;;12.09;52.10;97544.72;5378335;26;20032;-39
2024/04/09 10:24:15;;;;;;;1.73;0.87;;;10.80;66.50;;;12.06;52.47;97555.75;5377852;26;20472;-38
2024/04/09 10:26:44;;;;;;;1.60;0.70;;;10.80;67.00;;;11.94;51.77;97546.44;5375543;26;20040;-39